sensor_id;sensor_type;location;lat;lon;timestamp;temperature;humidity
1546;DHT22;766;51.502;9.752;2022-08-19T00:01:58;20.20;99.90
1546;DHT22;766;51.502;9.752;2022-08-19T00:04:33;20.20;99.90
1546;DHT22;766;51.502;9.752;2022-08-19T00:07:04;20.10;99.90
1546;DHT22;766;51.502;9.752;2022-08-19T00:09:33;20.00;99.90
1546;DHT22;766;51.502;9.752;2022-08-19T00:12:02;20.20;99.90
1546;DHT22;766;51.502;9.752;2022-08-19T00:14:31;20.20;99.90
1546;DHT22;766;51.502;9.752;2022-08-19T00:17:00;20.10;99.90
1546;DHT22;766;51.502;9.752;2022-08-19T00:19:31;20.10;99.90
1546;DHT22;766;51.502;9.752;2022-08-19T00:21:59;20.10;99.90
1546;DHT22;766;51.502;9.752;2022-08-19T00:24:29;20.10;99.90
1546;DHT22;766;51.502;9.752;2022-08-19T00:26:57;20.20;99.90
1546;DHT22;766;51.502;9.752;2022-08-19T00:29:48;20.20;99.90
1546;DHT22;766;51.502;9.752;2022-08-19T00:32:19;20.20;99.90
1546;DHT22;766;51.502;9.752;2022-08-19T00:34:49;20.20;99.90
1546;DHT22;766;51.502;9.752;2022-08-19T00:37:20;20.20;99.90
1546;DHT22;766;51.502;9.752;2022-08-19T00:39:50;20.10;99.90
1546;DHT22;766;51.502;9.752;2022-08-19T00:42:20;20.10;99.90
1546;DHT22;766;51.502;9.752;2022-08-19T00:44:49;20.10;99.90
1546;DHT22;766;51.502;9.752;2022-08-19T00:47:18;20.10;99.90
1546;DHT22;766;51.502;9.752;2022-08-19T00:49:52;20.20;99.90
1546;DHT22;766;51.502;9.752;2022-08-19T00:52:25;20.10;99.90
1546;DHT22;766;51.502;9.752;2022-08-19T00:54:56;20.10;99.90
1546;DHT22;766;51.502;9.752;2022-08-19T00:57:29;20.10;99.90
1546;DHT22;766;51.502;9.752;2022-08-19T00:59:59;20.10;99.90
1546;DHT22;766;51.502;9.752;2022-08-19T01:02:30;20.10;99.90
1546;DHT22;766;51.502;9.752;2022-08-19T01:05:03;20.10;99.90
1546;DHT22;766;51.502;9.752;2022-08-19T01:07:33;20.10;99.90
1546;DHT22;766;51.502;9.752;2022-08-19T01:10:10;20.10;99.90
1546;DHT22;766;51.502;9.752;2022-08-19T01:12:39;20.10;99.90
1546;DHT22;766;51.502;9.752;2022-08-19T01:15:10;20.20;99.90
1546;DHT22;766;51.502;9.752;2022-08-19T01:17:39;20.10;99.90
1546;DHT22;766;51.502;9.752;2022-08-19T01:20:12;20.10;99.90
1546;DHT22;766;51.502;9.752;2022-08-19T01:22:45;20.10;99.90
1546;DHT22;766;51.502;9.752;2022-08-19T01:25:15;20.10;99.90
1546;DHT22;766;51.502;9.752;2022-08-19T01:27:48;20.00;99.90
1546;DHT22;766;51.502;9.752;2022-08-19T01:30:22;20.00;99.90
1546;DHT22;766;51.502;9.752;2022-08-19T01:32:52;20.00;99.90
1546;DHT22;766;51.502;9.752;2022-08-19T01:35:22;20.00;99.90
1546;DHT22;766;51.502;9.752;2022-08-19T01:37:55;20.00;99.90
1546;DHT22;766;51.502;9.752;2022-08-19T01:40:26;20.10;99.90
1546;DHT22;766;51.502;9.752;2022-08-19T01:42:59;20.10;99.90
1546;DHT22;766;51.502;9.752;2022-08-19T01:45:29;20.10;99.90
1546;DHT22;766;51.502;9.752;2022-08-19T01:47:58;20.10;99.90
1546;DHT22;766;51.502;9.752;2022-08-19T01:50:29;20.00;99.90
1546;DHT22;766;51.502;9.752;2022-08-19T01:52:59;20.00;99.90
1546;DHT22;766;51.502;9.752;2022-08-19T01:55:35;20.00;99.90
1546;DHT22;766;51.502;9.752;2022-08-19T01:58:10;20.00;99.90
1546;DHT22;766;51.502;9.752;2022-08-19T02:00:39;19.90;99.90
1546;DHT22;766;51.502;9.752;2022-08-19T02:03:09;19.80;99.90
1546;DHT22;766;51.502;9.752;2022-08-19T02:05:39;19.90;99.90
1546;DHT22;766;51.502;9.752;2022-08-19T02:08:10;19.80;99.90
1546;DHT22;766;51.502;9.752;2022-08-19T02:10:40;19.70;99.90
1546;DHT22;766;51.502;9.752;2022-08-19T02:13:09;19.80;99.90
1546;DHT22;766;51.502;9.752;2022-08-19T02:15:38;19.80;99.90
1546;DHT22;766;51.502;9.752;2022-08-19T02:18:06;19.80;99.90
1546;DHT22;766;51.502;9.752;2022-08-19T02:20:35;19.90;99.90
1546;DHT22;766;51.502;9.752;2022-08-19T02:23:04;19.80;99.90
1546;DHT22;766;51.502;9.752;2022-08-19T02:25:47;19.90;99.90
1546;DHT22;766;51.502;9.752;2022-08-19T02:28:16;19.90;99.90
1546;DHT22;766;51.502;9.752;2022-08-19T02:30:46;20.00;99.90
1546;DHT22;766;51.502;9.752;2022-08-19T02:33:15;20.00;99.90
1546;DHT22;766;51.502;9.752;2022-08-19T02:35:46;20.00;99.90
1546;DHT22;766;51.502;9.752;2022-08-19T02:38:15;20.00;99.90
1546;DHT22;766;51.502;9.752;2022-08-19T02:40:58;20.00;99.90
1546;DHT22;766;51.502;9.752;2022-08-19T02:43:28;20.00;99.90
1546;DHT22;766;51.502;9.752;2022-08-19T02:46:00;20.00;99.90
1546;DHT22;766;51.502;9.752;2022-08-19T02:48:28;20.00;99.90
1546;DHT22;766;51.502;9.752;2022-08-19T02:50:59;20.00;99.90
1546;DHT22;766;51.502;9.752;2022-08-19T02:53:28;19.90;99.90
1546;DHT22;766;51.502;9.752;2022-08-19T02:55:58;19.90;99.90
1546;DHT22;766;51.502;9.752;2022-08-19T02:58:26;19.90;99.90
1546;DHT22;766;51.502;9.752;2022-08-19T03:00:56;19.80;99.90
1546;DHT22;766;51.502;9.752;2022-08-19T03:03:25;19.70;99.90
1546;DHT22;766;51.502;9.752;2022-08-19T03:06:03;19.70;99.90
1546;DHT22;766;51.502;9.752;2022-08-19T03:08:32;19.70;99.90
1546;DHT22;766;51.502;9.752;2022-08-19T03:11:02;19.70;99.90
1546;DHT22;766;51.502;9.752;2022-08-19T03:13:31;19.80;99.90
1546;DHT22;766;51.502;9.752;2022-08-19T03:15:59;19.70;99.90
1546;DHT22;766;51.502;9.752;2022-08-19T03:18:32;19.70;99.90
1546;DHT22;766;51.502;9.752;2022-08-19T03:21:01;19.70;99.90
1546;DHT22;766;51.502;9.752;2022-08-19T03:23:29;19.70;99.90
1546;DHT22;766;51.502;9.752;2022-08-19T03:25:58;19.60;99.90
1546;DHT22;766;51.502;9.752;2022-08-19T03:28:44;19.60;99.90
1546;DHT22;766;51.502;9.752;2022-08-19T03:31:24;19.60;99.90
1546;DHT22;766;51.502;9.752;2022-08-19T03:34:15;19.60;99.90
1546;DHT22;766;51.502;9.752;2022-08-19T03:36:45;19.50;99.90
1546;DHT22;766;51.502;9.752;2022-08-19T03:39:15;19.40;99.90
1546;DHT22;766;51.502;9.752;2022-08-19T03:41:45;19.40;99.90
1546;DHT22;766;51.502;9.752;2022-08-19T03:44:18;19.50;99.90
1546;DHT22;766;51.502;9.752;2022-08-19T03:46:49;19.60;99.90
1546;DHT22;766;51.502;9.752;2022-08-19T03:49:19;19.50;99.90
1546;DHT22;766;51.502;9.752;2022-08-19T03:51:55;19.50;99.90
1546;DHT22;766;51.502;9.752;2022-08-19T03:54:25;19.40;99.90
1546;DHT22;766;51.502;9.752;2022-08-19T03:56:55;19.50;99.90
1546;DHT22;766;51.502;9.752;2022-08-19T04:02:41;19.40;99.90
1546;DHT22;766;51.502;9.752;2022-08-19T04:05:27;19.40;99.90
1546;DHT22;766;51.502;9.752;2022-08-19T04:07:56;19.30;99.90
1546;DHT22;766;51.502;9.752;2022-08-19T04:10:26;19.20;99.90
1546;DHT22;766;51.502;9.752;2022-08-19T04:12:55;19.20;99.90
1546;DHT22;766;51.502;9.752;2022-08-19T04:15:25;19.20;99.90
1546;DHT22;766;51.502;9.752;2022-08-19T04:17:54;19.20;99.90
1546;DHT22;766;51.502;9.752;2022-08-19T04:20:22;19.20;99.90
1546;DHT22;766;51.502;9.752;2022-08-19T04:22:51;19.20;99.90
1546;DHT22;766;51.502;9.752;2022-08-19T04:25:22;19.20;99.90
1546;DHT22;766;51.502;9.752;2022-08-19T04:27:50;19.20;99.90
1546;DHT22;766;51.502;9.752;2022-08-19T04:30:19;19.20;99.90
1546;DHT22;766;51.502;9.752;2022-08-19T04:32:50;19.20;99.90
1546;DHT22;766;51.502;9.752;2022-08-19T04:35:19;19.20;99.90
1546;DHT22;766;51.502;9.752;2022-08-19T04:37:50;19.10;99.90
1546;DHT22;766;51.502;9.752;2022-08-19T04:40:19;19.10;99.90
1546;DHT22;766;51.502;9.752;2022-08-19T04:43:05;19.10;99.90
1546;DHT22;766;51.502;9.752;2022-08-19T04:45:38;19.00;99.90
1546;DHT22;766;51.502;9.752;2022-08-19T04:48:12;19.10;99.90
1546;DHT22;766;51.502;9.752;2022-08-19T04:50:54;19.00;99.90
1546;DHT22;766;51.502;9.752;2022-08-19T04:53:25;19.00;99.90
1546;DHT22;766;51.502;9.752;2022-08-19T04:55:55;19.00;99.90
1546;DHT22;766;51.502;9.752;2022-08-19T04:58:26;19.00;99.90
1546;DHT22;766;51.502;9.752;2022-08-19T05:00:57;19.00;99.90
1546;DHT22;766;51.502;9.752;2022-08-19T05:03:28;19.00;99.90
1546;DHT22;766;51.502;9.752;2022-08-19T05:06:05;19.00;99.90
1546;DHT22;766;51.502;9.752;2022-08-19T05:08:35;19.00;99.90
1546;DHT22;766;51.502;9.752;2022-08-19T05:11:08;19.00;99.90
1546;DHT22;766;51.502;9.752;2022-08-19T05:13:43;19.00;99.90
1546;DHT22;766;51.502;9.752;2022-08-19T05:16:12;19.00;99.90
1546;DHT22;766;51.502;9.752;2022-08-19T05:18:42;19.00;99.90
1546;DHT22;766;51.502;9.752;2022-08-19T05:21:35;19.00;99.90
1546;DHT22;766;51.502;9.752;2022-08-19T05:24:23;19.00;99.90
1546;DHT22;766;51.502;9.752;2022-08-19T05:26:54;19.00;99.90
1546;DHT22;766;51.502;9.752;2022-08-19T05:29:26;19.10;99.90
1546;DHT22;766;51.502;9.752;2022-08-19T05:32:05;19.10;99.90
1546;DHT22;766;51.502;9.752;2022-08-19T05:34:40;19.10;99.90
1546;DHT22;766;51.502;9.752;2022-08-19T05:37:08;19.10;99.90
1546;DHT22;766;51.502;9.752;2022-08-19T05:39:38;19.10;99.90
1546;DHT22;766;51.502;9.752;2022-08-19T05:42:09;19.10;99.90
1546;DHT22;766;51.502;9.752;2022-08-19T05:44:39;19.20;99.90
1546;DHT22;766;51.502;9.752;2022-08-19T05:47:12;19.20;99.90
1546;DHT22;766;51.502;9.752;2022-08-19T05:49:43;19.20;99.90
1546;DHT22;766;51.502;9.752;2022-08-19T05:52:14;19.20;99.90
1546;DHT22;766;51.502;9.752;2022-08-19T05:54:45;19.30;99.90
1546;DHT22;766;51.502;9.752;2022-08-19T05:57:18;19.40;99.90
1546;DHT22;766;51.502;9.752;2022-08-19T05:59:46;19.60;99.90
1546;DHT22;766;51.502;9.752;2022-08-19T06:02:24;19.80;99.90
1546;DHT22;766;51.502;9.752;2022-08-19T06:04:54;20.00;99.90
1546;DHT22;766;51.502;9.752;2022-08-19T06:07:22;20.10;99.90
1546;DHT22;766;51.502;9.752;2022-08-19T06:09:51;20.20;99.90
1546;DHT22;766;51.502;9.752;2022-08-19T06:12:27;20.20;99.90
1546;DHT22;766;51.502;9.752;2022-08-19T06:14:59;20.30;99.90
1546;DHT22;766;51.502;9.752;2022-08-19T06:17:28;20.10;99.90
1546;DHT22;766;51.502;9.752;2022-08-19T06:19:59;20.10;99.90
1546;DHT22;766;51.502;9.752;2022-08-19T06:22:30;20.10;99.90
1546;DHT22;766;51.502;9.752;2022-08-19T06:24:58;20.20;99.90
1546;DHT22;766;51.502;9.752;2022-08-19T06:27:27;20.30;99.90
1546;DHT22;766;51.502;9.752;2022-08-19T06:29:57;20.20;99.90
1546;DHT22;766;51.502;9.752;2022-08-19T06:32:26;20.20;99.90
1546;DHT22;766;51.502;9.752;2022-08-19T06:34:54;20.20;99.90
1546;DHT22;766;51.502;9.752;2022-08-19T06:37:24;20.20;99.90
1546;DHT22;766;51.502;9.752;2022-08-19T06:39:53;20.30;99.90
1546;DHT22;766;51.502;9.752;2022-08-19T06:42:22;20.40;99.90
1546;DHT22;766;51.502;9.752;2022-08-19T06:44:50;20.50;99.90
1546;DHT22;766;51.502;9.752;2022-08-19T06:47:21;20.70;99.90
1546;DHT22;766;51.502;9.752;2022-08-19T06:49:54;20.80;99.90
1546;DHT22;766;51.502;9.752;2022-08-19T06:52:30;21.00;99.90
1546;DHT22;766;51.502;9.752;2022-08-19T06:55:03;21.10;99.90
1546;DHT22;766;51.502;9.752;2022-08-19T06:57:33;21.30;99.90
1546;DHT22;766;51.502;9.752;2022-08-19T07:00:03;21.40;99.90
1546;DHT22;766;51.502;9.752;2022-08-19T07:02:35;21.60;99.90
1546;DHT22;766;51.502;9.752;2022-08-19T07:05:07;21.90;99.90
1546;DHT22;766;51.502;9.752;2022-08-19T07:07:38;22.10;99.90
1546;DHT22;766;51.502;9.752;2022-08-19T07:10:13;22.20;99.90
1546;DHT22;766;51.502;9.752;2022-08-19T07:12:42;22.00;99.90
1546;DHT22;766;51.502;9.752;2022-08-19T07:15:11;22.20;99.90
1546;DHT22;766;51.502;9.752;2022-08-19T07:17:40;22.00;99.90
1546;DHT22;766;51.502;9.752;2022-08-19T07:20:11;21.80;99.90
1546;DHT22;766;51.502;9.752;2022-08-19T07:22:41;21.70;99.90
1546;DHT22;766;51.502;9.752;2022-08-19T07:25:10;21.70;99.90
1546;DHT22;766;51.502;9.752;2022-08-19T07:27:40;21.60;99.90
1546;DHT22;766;51.502;9.752;2022-08-19T07:30:12;21.40;99.90
1546;DHT22;766;51.502;9.752;2022-08-19T07:32:41;21.30;99.90
1546;DHT22;766;51.502;9.752;2022-08-19T07:35:09;21.20;99.90
1546;DHT22;766;51.502;9.752;2022-08-19T07:37:38;21.20;99.90
1546;DHT22;766;51.502;9.752;2022-08-19T07:40:12;21.30;99.90
1546;DHT22;766;51.502;9.752;2022-08-19T07:42:42;21.20;99.90
1546;DHT22;766;51.502;9.752;2022-08-19T07:45:11;21.20;99.90
1546;DHT22;766;51.502;9.752;2022-08-19T07:47:40;21.10;99.90
1546;DHT22;766;51.502;9.752;2022-08-19T07:50:19;21.00;99.90
1546;DHT22;766;51.502;9.752;2022-08-19T07:52:49;21.00;99.90
1546;DHT22;766;51.502;9.752;2022-08-19T07:55:24;20.90;99.90
1546;DHT22;766;51.502;9.752;2022-08-19T07:58:11;21.00;99.90
1546;DHT22;766;51.502;9.752;2022-08-19T08:00:40;21.00;99.90
1546;DHT22;766;51.502;9.752;2022-08-19T08:03:09;21.00;99.90
1546;DHT22;766;51.502;9.752;2022-08-19T08:05:37;21.00;99.90
1546;DHT22;766;51.502;9.752;2022-08-19T08:08:38;21.00;99.90
1546;DHT22;766;51.502;9.752;2022-08-19T08:11:25;21.00;99.90
1546;DHT22;766;51.502;9.752;2022-08-19T08:13:55;21.20;99.90
1546;DHT22;766;51.502;9.752;2022-08-19T08:19:08;21.20;99.90
1546;DHT22;766;51.502;9.752;2022-08-19T08:21:55;21.20;99.90
1546;DHT22;766;51.502;9.752;2022-08-19T08:24:24;21.20;99.90
1546;DHT22;766;51.502;9.752;2022-08-19T08:26:59;21.20;99.90
1546;DHT22;766;51.502;9.752;2022-08-19T08:29:37;21.30;99.90
1546;DHT22;766;51.502;9.752;2022-08-19T08:32:08;21.60;99.90
1546;DHT22;766;51.502;9.752;2022-08-19T08:34:41;21.70;99.90
1546;DHT22;766;51.502;9.752;2022-08-19T08:37:17;21.90;99.90
1546;DHT22;766;51.502;9.752;2022-08-19T08:39:46;22.00;99.90
1546;DHT22;766;51.502;9.752;2022-08-19T08:42:22;22.00;99.90
1546;DHT22;766;51.502;9.752;2022-08-19T08:44:58;22.00;99.90
1546;DHT22;766;51.502;9.752;2022-08-19T08:47:30;22.00;99.90
1546;DHT22;766;51.502;9.752;2022-08-19T08:50:03;21.90;99.90
1546;DHT22;766;51.502;9.752;2022-08-19T08:52:34;21.90;99.90
1546;DHT22;766;51.502;9.752;2022-08-19T08:55:08;22.00;99.90
1546;DHT22;766;51.502;9.752;2022-08-19T08:57:52;22.00;99.90
1546;DHT22;766;51.502;9.752;2022-08-19T09:00:25;22.10;99.90
1546;DHT22;766;51.502;9.752;2022-08-19T09:02:58;22.40;99.90
1546;DHT22;766;51.502;9.752;2022-08-19T09:05:35;22.60;99.90
1546;DHT22;766;51.502;9.752;2022-08-19T09:08:19;22.80;99.90
1546;DHT22;766;51.502;9.752;2022-08-19T09:10:53;23.00;99.90
1546;DHT22;766;51.502;9.752;2022-08-19T09:13:30;22.70;99.90
1546;DHT22;766;51.502;9.752;2022-08-19T09:16:07;22.60;99.90
1546;DHT22;766;51.502;9.752;2022-08-19T09:18:42;22.50;99.90
1546;DHT22;766;51.502;9.752;2022-08-19T09:21:10;22.50;99.90
1546;DHT22;766;51.502;9.752;2022-08-19T09:23:39;22.50;99.90
1546;DHT22;766;51.502;9.752;2022-08-19T09:26:10;22.40;99.90
1546;DHT22;766;51.502;9.752;2022-08-19T09:28:50;22.30;99.90
1546;DHT22;766;51.502;9.752;2022-08-19T09:31:26;22.40;99.90
1546;DHT22;766;51.502;9.752;2022-08-19T09:33:54;22.50;99.90
1546;DHT22;766;51.502;9.752;2022-08-19T09:36:26;22.60;99.90
1546;DHT22;766;51.502;9.752;2022-08-19T09:39:01;22.70;99.90
1546;DHT22;766;51.502;9.752;2022-08-19T09:41:42;22.70;99.90
1546;DHT22;766;51.502;9.752;2022-08-19T09:44:16;22.80;99.90
1546;DHT22;766;51.502;9.752;2022-08-19T09:46:49;22.80;99.90
1546;DHT22;766;51.502;9.752;2022-08-19T09:49:19;23.00;99.90
1546;DHT22;766;51.502;9.752;2022-08-19T09:51:51;23.00;99.90
1546;DHT22;766;51.502;9.752;2022-08-19T09:54:20;23.00;99.90
1546;DHT22;766;51.502;9.752;2022-08-19T09:56:51;23.20;99.90
1546;DHT22;766;51.502;9.752;2022-08-19T09:59:21;23.20;99.90
1546;DHT22;766;51.502;9.752;2022-08-19T10:01:50;23.20;99.90
1546;DHT22;766;51.502;9.752;2022-08-19T10:04:19;23.10;99.90
1546;DHT22;766;51.502;9.752;2022-08-19T10:06:49;23.30;99.90
1546;DHT22;766;51.502;9.752;2022-08-19T10:09:21;23.20;99.90
1546;DHT22;766;51.502;9.752;2022-08-19T10:11:59;23.30;99.90
1546;DHT22;766;51.502;9.752;2022-08-19T10:14:30;23.30;99.90
1546;DHT22;766;51.502;9.752;2022-08-19T10:17:01;23.40;99.90
1546;DHT22;766;51.502;9.752;2022-08-19T10:19:45;23.40;99.90
1546;DHT22;766;51.502;9.752;2022-08-19T10:22:22;23.50;99.90
1546;DHT22;766;51.502;9.752;2022-08-19T10:24:52;23.60;99.90
1546;DHT22;766;51.502;9.752;2022-08-19T10:27:20;23.60;99.90
1546;DHT22;766;51.502;9.752;2022-08-19T10:29:54;23.70;99.90
1546;DHT22;766;51.502;9.752;2022-08-19T10:32:24;23.80;99.90
1546;DHT22;766;51.502;9.752;2022-08-19T10:35:00;24.00;99.90
1546;DHT22;766;51.502;9.752;2022-08-19T10:37:32;24.00;99.90
1546;DHT22;766;51.502;9.752;2022-08-19T10:40:01;24.20;99.90
1546;DHT22;766;51.502;9.752;2022-08-19T10:42:31;24.40;99.90
1546;DHT22;766;51.502;9.752;2022-08-19T10:45:01;24.60;99.90
1546;DHT22;766;51.502;9.752;2022-08-19T10:47:30;25.00;99.90
1546;DHT22;766;51.502;9.752;2022-08-19T10:49:59;25.50;99.90
1546;DHT22;766;51.502;9.752;2022-08-19T10:52:46;26.30;99.90
1546;DHT22;766;51.502;9.752;2022-08-19T10:55:18;27.00;99.90
1546;DHT22;766;51.502;9.752;2022-08-19T10:58:10;27.40;99.90
1546;DHT22;766;51.502;9.752;2022-08-19T11:00:41;27.30;99.90
1546;DHT22;766;51.502;9.752;2022-08-19T11:03:11;27.00;99.90
1546;DHT22;766;51.502;9.752;2022-08-19T11:05:39;26.70;99.90
1546;DHT22;766;51.502;9.752;2022-08-19T11:08:10;26.80;99.90
1546;DHT22;766;51.502;9.752;2022-08-19T11:10:51;27.00;99.90
1546;DHT22;766;51.502;9.752;2022-08-19T11:13:26;27.30;99.90
1546;DHT22;766;51.502;9.752;2022-08-19T11:16:02;27.70;99.90
1546;DHT22;766;51.502;9.752;2022-08-19T11:18:37;28.20;99.90
1546;DHT22;766;51.502;9.752;2022-08-19T11:21:08;28.40;99.90
1546;DHT22;766;51.502;9.752;2022-08-19T11:23:37;29.10;99.90
1546;DHT22;766;51.502;9.752;2022-08-19T11:26:06;29.40;99.90
1546;DHT22;766;51.502;9.752;2022-08-19T11:28:36;30.10;99.90
1546;DHT22;766;51.502;9.752;2022-08-19T11:31:12;30.10;99.90
1546;DHT22;766;51.502;9.752;2022-08-19T11:33:43;29.70;99.90
1546;DHT22;766;51.502;9.752;2022-08-19T11:36:13;29.40;99.90
1546;DHT22;766;51.502;9.752;2022-08-19T11:38:45;29.70;99.90
1546;DHT22;766;51.502;9.752;2022-08-19T11:41:16;30.30;99.90
1546;DHT22;766;51.502;9.752;2022-08-19T11:43:45;30.30;99.90
1546;DHT22;766;51.502;9.752;2022-08-19T11:46:19;30.50;99.90
1546;DHT22;766;51.502;9.752;2022-08-19T11:48:47;30.80;99.90
1546;DHT22;766;51.502;9.752;2022-08-19T11:51:18;31.50;99.90
1546;DHT22;766;51.502;9.752;2022-08-19T11:53:47;31.80;99.90
1546;DHT22;766;51.502;9.752;2022-08-19T11:56:18;31.40;99.90
1546;DHT22;766;51.502;9.752;2022-08-19T11:58:47;31.80;99.90
1546;DHT22;766;51.502;9.752;2022-08-19T12:01:18;32.20;99.90
1546;DHT22;766;51.502;9.752;2022-08-19T12:03:49;32.40;99.90
1546;DHT22;766;51.502;9.752;2022-08-19T12:06:20;32.60;99.90
1546;DHT22;766;51.502;9.752;2022-08-19T12:08:59;32.80;99.90
1546;DHT22;766;51.502;9.752;2022-08-19T12:11:28;32.40;99.90
1546;DHT22;766;51.502;9.752;2022-08-19T12:14:00;32.50;99.90
1546;DHT22;766;51.502;9.752;2022-08-19T12:16:31;32.40;99.90
1546;DHT22;766;51.502;9.752;2022-08-19T12:19:05;32.10;99.90
1546;DHT22;766;51.502;9.752;2022-08-19T12:21:35;32.10;99.90
1546;DHT22;766;51.502;9.752;2022-08-19T12:24:06;32.30;99.90
1546;DHT22;766;51.502;9.752;2022-08-19T12:26:36;31.80;99.90
1546;DHT22;766;51.502;9.752;2022-08-19T12:29:19;31.50;99.90
1546;DHT22;766;51.502;9.752;2022-08-19T12:31:59;30.80;99.90
1546;DHT22;766;51.502;9.752;2022-08-19T12:34:31;30.80;99.90
1546;DHT22;766;51.502;9.752;2022-08-19T12:37:06;30.90;99.90
1546;DHT22;766;51.502;9.752;2022-08-19T12:39:41;30.70;99.90
1546;DHT22;766;51.502;9.752;2022-08-19T12:42:10;30.60;99.90
1546;DHT22;766;51.502;9.752;2022-08-19T12:44:40;30.70;99.90
1546;DHT22;766;51.502;9.752;2022-08-19T12:47:13;30.70;99.90
1546;DHT22;766;51.502;9.752;2022-08-19T12:49:42;30.90;99.90
1546;DHT22;766;51.502;9.752;2022-08-19T12:52:22;30.40;99.90
1546;DHT22;766;51.502;9.752;2022-08-19T12:54:51;30.30;99.90
1546;DHT22;766;51.502;9.752;2022-08-19T12:57:22;30.10;99.90
1546;DHT22;766;51.502;9.752;2022-08-19T13:00:00;29.50;99.90
1546;DHT22;766;51.502;9.752;2022-08-19T13:02:32;29.00;99.90
1546;DHT22;766;51.502;9.752;2022-08-19T13:05:07;28.90;99.90
1546;DHT22;766;51.502;9.752;2022-08-19T13:07:36;29.10;99.90
1546;DHT22;766;51.502;9.752;2022-08-19T13:10:10;29.40;99.90
1546;DHT22;766;51.502;9.752;2022-08-19T13:12:40;29.60;99.90
1546;DHT22;766;51.502;9.752;2022-08-19T13:15:09;29.50;99.90
1546;DHT22;766;51.502;9.752;2022-08-19T13:17:39;29.40;99.90
1546;DHT22;766;51.502;9.752;2022-08-19T13:20:09;29.60;99.90
1546;DHT22;766;51.502;9.752;2022-08-19T13:22:38;29.50;99.90
1546;DHT22;766;51.502;9.752;2022-08-19T13:25:10;29.10;99.90
1546;DHT22;766;51.502;9.752;2022-08-19T13:27:40;28.90;99.90
1546;DHT22;766;51.502;9.752;2022-08-19T13:30:11;28.80;99.90
1546;DHT22;766;51.502;9.752;2022-08-19T13:32:59;28.70;99.90
1546;DHT22;766;51.502;9.752;2022-08-19T13:35:44;28.70;99.90
1546;DHT22;766;51.502;9.752;2022-08-19T13:38:18;28.30;99.90
1546;DHT22;766;51.502;9.752;2022-08-19T13:40:48;27.70;99.90
1546;DHT22;766;51.502;9.752;2022-08-19T13:43:18;27.90;99.90
1546;DHT22;766;51.502;9.752;2022-08-19T13:45:50;27.90;99.90
1546;DHT22;766;51.502;9.752;2022-08-19T13:48:22;28.10;99.90
1546;DHT22;766;51.502;9.752;2022-08-19T13:50:52;28.40;99.90
1546;DHT22;766;51.502;9.752;2022-08-19T13:53:21;28.50;99.90
1546;DHT22;766;51.502;9.752;2022-08-19T13:55:50;28.70;99.90
1546;DHT22;766;51.502;9.752;2022-08-19T13:58:20;28.90;99.90
1546;DHT22;766;51.502;9.752;2022-08-19T14:00:49;28.90;99.90
1546;DHT22;766;51.502;9.752;2022-08-19T14:03:17;28.80;99.90
1546;DHT22;766;51.502;9.752;2022-08-19T14:08:19;28.80;99.90
1546;DHT22;766;51.502;9.752;2022-08-19T14:10:47;28.70;99.90
1546;DHT22;766;51.502;9.752;2022-08-19T14:13:18;28.50;99.90
1546;DHT22;766;51.502;9.752;2022-08-19T14:15:47;28.60;99.90
1546;DHT22;766;51.502;9.752;2022-08-19T14:18:18;28.60;99.90
1546;DHT22;766;51.502;9.752;2022-08-19T14:20:48;28.60;99.90
1546;DHT22;766;51.502;9.752;2022-08-19T14:23:17;28.80;99.90
1546;DHT22;766;51.502;9.752;2022-08-19T14:25:45;28.90;99.90
1546;DHT22;766;51.502;9.752;2022-08-19T14:28:14;28.80;99.90
1546;DHT22;766;51.502;9.752;2022-08-19T14:30:43;28.90;99.90
1546;DHT22;766;51.502;9.752;2022-08-19T14:33:12;28.80;99.90
1546;DHT22;766;51.502;9.752;2022-08-19T14:35:41;28.70;99.90
1546;DHT22;766;51.502;9.752;2022-08-19T14:38:17;28.80;99.90
1546;DHT22;766;51.502;9.752;2022-08-19T14:41:13;28.90;99.90
1546;DHT22;766;51.502;9.752;2022-08-19T14:43:44;29.00;99.90
1546;DHT22;766;51.502;9.752;2022-08-19T14:46:14;28.90;99.90
1546;DHT22;766;51.502;9.752;2022-08-19T14:48:43;28.90;99.90
1546;DHT22;766;51.502;9.752;2022-08-19T14:51:17;28.50;99.90
1546;DHT22;766;51.502;9.752;2022-08-19T14:53:49;28.20;99.90
1546;DHT22;766;51.502;9.752;2022-08-19T14:56:23;28.00;99.90
1546;DHT22;766;51.502;9.752;2022-08-19T14:58:52;28.00;99.90
1546;DHT22;766;51.502;9.752;2022-08-19T15:01:22;27.80;99.90
1546;DHT22;766;51.502;9.752;2022-08-19T15:03:51;27.30;99.90
1546;DHT22;766;51.502;9.752;2022-08-19T15:06:22;27.10;99.90
1546;DHT22;766;51.502;9.752;2022-08-19T15:08:53;27.10;99.90
1546;DHT22;766;51.502;9.752;2022-08-19T15:11:26;27.30;99.90
1546;DHT22;766;51.502;9.752;2022-08-19T15:13:55;27.30;99.90
1546;DHT22;766;51.502;9.752;2022-08-19T15:16:24;27.40;99.90
1546;DHT22;766;51.502;9.752;2022-08-19T15:18:57;27.40;99.90
1546;DHT22;766;51.502;9.752;2022-08-19T15:21:26;27.40;99.90
1546;DHT22;766;51.502;9.752;2022-08-19T15:24:01;27.20;99.90
1546;DHT22;766;51.502;9.752;2022-08-19T15:26:32;27.10;99.90
1546;DHT22;766;51.502;9.752;2022-08-19T15:29:03;27.10;99.90
1546;DHT22;766;51.502;9.752;2022-08-19T15:31:32;27.30;99.90
1546;DHT22;766;51.502;9.752;2022-08-19T15:34:04;27.40;99.90
1546;DHT22;766;51.502;9.752;2022-08-19T15:36:33;27.40;99.90
1546;DHT22;766;51.502;9.752;2022-08-19T15:39:04;27.50;99.90
1546;DHT22;766;51.502;9.752;2022-08-19T15:41:36;27.50;99.90
1546;DHT22;766;51.502;9.752;2022-08-19T15:44:10;27.40;99.90
1546;DHT22;766;51.502;9.752;2022-08-19T15:46:43;27.50;99.90
1546;DHT22;766;51.502;9.752;2022-08-19T15:49:14;27.50;99.90
1546;DHT22;766;51.502;9.752;2022-08-19T15:51:45;27.30;99.90
1546;DHT22;766;51.502;9.752;2022-08-19T15:54:17;27.40;99.90
1546;DHT22;766;51.502;9.752;2022-08-19T15:56:47;27.30;99.90
1546;DHT22;766;51.502;9.752;2022-08-19T15:59:34;27.30;99.90
1546;DHT22;766;51.502;9.752;2022-08-19T16:02:21;27.30;99.90
1546;DHT22;766;51.502;9.752;2022-08-19T16:05:11;27.20;99.90
1546;DHT22;766;51.502;9.752;2022-08-19T16:07:57;27.10;99.90
1546;DHT22;766;51.502;9.752;2022-08-19T16:10:27;27.00;99.90
1546;DHT22;766;51.502;9.752;2022-08-19T16:12:56;26.90;99.90
1546;DHT22;766;51.502;9.752;2022-08-19T16:15:27;26.80;99.90
1546;DHT22;766;51.502;9.752;2022-08-19T16:17:56;26.80;99.90
1546;DHT22;766;51.502;9.752;2022-08-19T16:20:28;26.70;99.90
1546;DHT22;766;51.502;9.752;2022-08-19T16:22:57;26.60;99.90
1546;DHT22;766;51.502;9.752;2022-08-19T16:25:27;26.50;99.90
1546;DHT22;766;51.502;9.752;2022-08-19T16:27:57;26.40;99.90
1546;DHT22;766;51.502;9.752;2022-08-19T16:30:35;26.30;99.90
1546;DHT22;766;51.502;9.752;2022-08-19T16:33:04;26.20;99.90
1546;DHT22;766;51.502;9.752;2022-08-19T16:35:32;26.10;99.90
1546;DHT22;766;51.502;9.752;2022-08-19T16:38:01;26.00;99.90
1546;DHT22;766;51.502;9.752;2022-08-19T16:40:31;26.00;99.90
1546;DHT22;766;51.502;9.752;2022-08-19T16:43:00;25.90;99.90
1546;DHT22;766;51.502;9.752;2022-08-19T16:45:29;25.90;99.90
1546;DHT22;766;51.502;9.752;2022-08-19T16:47:57;26.00;99.90
1546;DHT22;766;51.502;9.752;2022-08-19T16:50:25;25.90;99.90
1546;DHT22;766;51.502;9.752;2022-08-19T16:53:14;25.90;99.90
1546;DHT22;766;51.502;9.752;2022-08-19T16:55:45;25.90;99.90
1546;DHT22;766;51.502;9.752;2022-08-19T16:58:16;25.90;99.90